sensor_id;sensor_type;location;lat;lon;timestamp;temperature;humidity
20045;DHT22;10183;47.808;9.476;2022-12-07T00:01:32;1.90;99.90
20045;DHT22;10183;47.808;9.476;2022-12-07T00:04:00;1.90;99.90
20045;DHT22;10183;47.808;9.476;2022-12-07T00:06:34;1.90;99.90
20045;DHT22;10183;47.808;9.476;2022-12-07T00:09:01;1.90;99.90
20045;DHT22;10183;47.808;9.476;2022-12-07T00:11:27;1.80;99.90
20045;DHT22;10183;47.808;9.476;2022-12-07T00:13:56;1.80;99.90
20045;DHT22;10183;47.808;9.476;2022-12-07T00:16:25;1.80;99.90
20045;DHT22;10183;47.808;9.476;2022-12-07T00:18:52;1.90;99.90
20045;DHT22;10183;47.808;9.476;2022-12-07T00:21:21;1.90;99.90
20045;DHT22;10183;47.808;9.476;2022-12-07T00:23:48;1.90;99.90
20045;DHT22;10183;47.808;9.476;2022-12-07T00:26:21;1.90;99.90
20045;DHT22;10183;47.808;9.476;2022-12-07T00:28:53;1.80;99.90
20045;DHT22;10183;47.808;9.476;2022-12-07T00:31:21;1.80;99.90
20045;DHT22;10183;47.808;9.476;2022-12-07T00:33:48;1.80;99.90
20045;DHT22;10183;47.808;9.476;2022-12-07T00:36:20;1.80;99.90
20045;DHT22;10183;47.808;9.476;2022-12-07T00:38:46;1.80;99.90
20045;DHT22;10183;47.808;9.476;2022-12-07T00:41:24;1.70;99.90
20045;DHT22;10183;47.808;9.476;2022-12-07T00:43:51;1.80;99.90
20045;DHT22;10183;47.808;9.476;2022-12-07T00:46:19;1.70;99.90
20045;DHT22;10183;47.808;9.476;2022-12-07T00:48:47;1.70;99.90
20045;DHT22;10183;47.808;9.476;2022-12-07T00:51:14;1.70;99.90
20045;DHT22;10183;47.808;9.476;2022-12-07T00:53:41;1.70;99.90
20045;DHT22;10183;47.808;9.476;2022-12-07T00:56:19;1.80;99.90
20045;DHT22;10183;47.808;9.476;2022-12-07T00:59:00;1.70;99.90
20045;DHT22;10183;47.808;9.476;2022-12-07T01:01:29;1.70;99.90
20045;DHT22;10183;47.808;9.476;2022-12-07T01:03:55;1.70;99.90
20045;DHT22;10183;47.808;9.476;2022-12-07T01:06:23;1.70;99.90
20045;DHT22;10183;47.808;9.476;2022-12-07T01:08:49;1.70;99.90
20045;DHT22;10183;47.808;9.476;2022-12-07T01:11:18;1.70;99.90
20045;DHT22;10183;47.808;9.476;2022-12-07T01:13:45;1.70;99.90
20045;DHT22;10183;47.808;9.476;2022-12-07T01:16:14;1.70;99.90
20045;DHT22;10183;47.808;9.476;2022-12-07T01:18:41;1.70;99.90
20045;DHT22;10183;47.808;9.476;2022-12-07T01:21:14;1.70;99.90
20045;DHT22;10183;47.808;9.476;2022-12-07T01:23:41;1.70;99.90
20045;DHT22;10183;47.808;9.476;2022-12-07T01:26:11;1.70;99.90
20045;DHT22;10183;47.808;9.476;2022-12-07T01:28:37;1.70;99.90
20045;DHT22;10183;47.808;9.476;2022-12-07T01:31:06;1.70;99.90
20045;DHT22;10183;47.808;9.476;2022-12-07T01:33:36;1.70;99.90
20045;DHT22;10183;47.808;9.476;2022-12-07T01:36:14;1.70;99.90
20045;DHT22;10183;47.808;9.476;2022-12-07T01:38:40;1.70;99.90
20045;DHT22;10183;47.808;9.476;2022-12-07T01:41:07;1.60;99.90
20045;DHT22;10183;47.808;9.476;2022-12-07T01:43:34;1.60;99.90
20045;DHT22;10183;47.808;9.476;2022-12-07T01:46:02;1.60;99.90
20045;DHT22;10183;47.808;9.476;2022-12-07T01:48:36;1.70;99.90
20045;DHT22;10183;47.808;9.476;2022-12-07T01:51:09;1.70;99.90
20045;DHT22;10183;47.808;9.476;2022-12-07T01:53:40;1.60;99.90
20045;DHT22;10183;47.808;9.476;2022-12-07T01:56:12;1.60;99.90
20045;DHT22;10183;47.808;9.476;2022-12-07T01:58:41;1.70;99.90
20045;DHT22;10183;47.808;9.476;2022-12-07T02:01:07;1.70;99.90
20045;DHT22;10183;47.808;9.476;2022-12-07T02:03:39;1.70;99.90
20045;DHT22;10183;47.808;9.476;2022-12-07T02:06:07;1.70;99.90
20045;DHT22;10183;47.808;9.476;2022-12-07T02:08:34;1.60;99.90
20045;DHT22;10183;47.808;9.476;2022-12-07T02:11:05;1.70;99.90
20045;DHT22;10183;47.808;9.476;2022-12-07T02:13:35;1.70;99.90
20045;DHT22;10183;47.808;9.476;2022-12-07T02:24:18;1.70;99.90
20045;DHT22;10183;47.808;9.476;2022-12-07T02:29:44;1.70;99.90
20045;DHT22;10183;47.808;9.476;2022-12-07T02:32:18;1.70;99.90
20045;DHT22;10183;47.808;9.476;2022-12-07T02:35:07;1.60;99.90
20045;DHT22;10183;47.808;9.476;2022-12-07T02:43:09;1.60;99.90
20045;DHT22;10183;47.808;9.476;2022-12-07T02:45:39;1.60;99.90
20045;DHT22;10183;47.808;9.476;2022-12-07T02:48:07;1.60;99.90
20045;DHT22;10183;47.808;9.476;2022-12-07T02:50:34;1.70;99.90
20045;DHT22;10183;47.808;9.476;2022-12-07T02:53:01;1.60;99.90
20045;DHT22;10183;47.808;9.476;2022-12-07T02:55:32;1.60;99.90
20045;DHT22;10183;47.808;9.476;2022-12-07T03:00:58;1.60;99.90
20045;DHT22;10183;47.808;9.476;2022-12-07T03:03:27;1.60;99.90
20045;DHT22;10183;47.808;9.476;2022-12-07T03:06:16;1.60;99.90
20045;DHT22;10183;47.808;9.476;2022-12-07T03:08:57;1.60;99.90
20045;DHT22;10183;47.808;9.476;2022-12-07T03:11:47;1.50;99.90
20045;DHT22;10183;47.808;9.476;2022-12-07T03:14:18;1.50;99.90
20045;DHT22;10183;47.808;9.476;2022-12-07T03:17:05;1.50;99.90
20045;DHT22;10183;47.808;9.476;2022-12-07T03:19:34;1.50;99.90
20045;DHT22;10183;47.808;9.476;2022-12-07T03:22:07;1.60;99.90
20045;DHT22;10183;47.808;9.476;2022-12-07T03:24:55;1.50;99.90
20045;DHT22;10183;47.808;9.476;2022-12-07T03:27:28;1.50;99.90
20045;DHT22;10183;47.808;9.476;2022-12-07T03:30:30;1.50;99.90
20045;DHT22;10183;47.808;9.476;2022-12-07T03:33:03;1.50;99.90
20045;DHT22;10183;47.808;9.476;2022-12-07T03:35:34;1.50;99.90
20045;DHT22;10183;47.808;9.476;2022-12-07T03:38:21;1.50;99.90
20045;DHT22;10183;47.808;9.476;2022-12-07T03:41:09;1.50;99.90
20045;DHT22;10183;47.808;9.476;2022-12-07T03:43:37;1.50;99.90
20045;DHT22;10183;47.808;9.476;2022-12-07T03:46:34;1.50;99.90
20045;DHT22;10183;47.808;9.476;2022-12-07T03:49:08;1.60;99.90
20045;DHT22;10183;47.808;9.476;2022-12-07T03:51:51;1.80;99.90
20045;DHT22;10183;47.808;9.476;2022-12-07T03:54:45;1.80;99.90
20045;DHT22;10183;47.808;9.476;2022-12-07T03:57:14;1.90;99.90
20045;DHT22;10183;47.808;9.476;2022-12-07T03:59:41;1.90;99.90
20045;DHT22;10183;47.808;9.476;2022-12-07T04:02:08;1.90;99.90
20045;DHT22;10183;47.808;9.476;2022-12-07T04:04:36;2.00;99.90
20045;DHT22;10183;47.808;9.476;2022-12-07T04:07:02;2.10;99.90
20045;DHT22;10183;47.808;9.476;2022-12-07T04:09:29;2.10;99.90
20045;DHT22;10183;47.808;9.476;2022-12-07T04:11:55;2.10;99.90
20045;DHT22;10183;47.808;9.476;2022-12-07T04:14:21;2.00;99.90
20045;DHT22;10183;47.808;9.476;2022-12-07T04:16:53;2.00;99.90
20045;DHT22;10183;47.808;9.476;2022-12-07T04:19:21;2.00;99.90
20045;DHT22;10183;47.808;9.476;2022-12-07T04:21:48;2.00;99.90
20045;DHT22;10183;47.808;9.476;2022-12-07T04:24:15;1.90;99.90
20045;DHT22;10183;47.808;9.476;2022-12-07T04:26:42;1.90;99.90
20045;DHT22;10183;47.808;9.476;2022-12-07T04:29:09;1.90;99.90
20045;DHT22;10183;47.808;9.476;2022-12-07T04:31:36;2.00;99.90
20045;DHT22;10183;47.808;9.476;2022-12-07T04:34:03;2.00;99.90
20045;DHT22;10183;47.808;9.476;2022-12-07T04:36:29;2.10;99.90
20045;DHT22;10183;47.808;9.476;2022-12-07T04:38:56;2.00;99.90
20045;DHT22;10183;47.808;9.476;2022-12-07T04:41:23;2.00;99.90
20045;DHT22;10183;47.808;9.476;2022-12-07T04:46:20;2.00;99.90
20045;DHT22;10183;47.808;9.476;2022-12-07T04:48:46;2.00;99.90
20045;DHT22;10183;47.808;9.476;2022-12-07T04:51:19;1.90;99.90
20045;DHT22;10183;47.808;9.476;2022-12-07T04:53:46;1.90;99.90
20045;DHT22;10183;47.808;9.476;2022-12-07T04:56:14;1.90;99.90
20045;DHT22;10183;47.808;9.476;2022-12-07T04:58:41;1.90;99.90
20045;DHT22;10183;47.808;9.476;2022-12-07T05:01:07;1.80;99.90
20045;DHT22;10183;47.808;9.476;2022-12-07T05:03:33;1.80;99.90
20045;DHT22;10183;47.808;9.476;2022-12-07T05:05:59;1.80;99.90
20045;DHT22;10183;47.808;9.476;2022-12-07T05:08:25;1.80;99.90
20045;DHT22;10183;47.808;9.476;2022-12-07T05:10:52;1.80;99.90
20045;DHT22;10183;47.808;9.476;2022-12-07T05:13:18;1.80;99.90
20045;DHT22;10183;47.808;9.476;2022-12-07T05:15:44;1.90;99.90
20045;DHT22;10183;47.808;9.476;2022-12-07T05:18:11;1.80;99.90
20045;DHT22;10183;47.808;9.476;2022-12-07T05:20:42;1.80;99.90
20045;DHT22;10183;47.808;9.476;2022-12-07T05:23:08;1.80;99.90
20045;DHT22;10183;47.808;9.476;2022-12-07T05:25:35;1.80;99.90
20045;DHT22;10183;47.808;9.476;2022-12-07T05:28:01;1.80;99.90
20045;DHT22;10183;47.808;9.476;2022-12-07T05:30:27;1.80;99.90
20045;DHT22;10183;47.808;9.476;2022-12-07T05:32:53;1.70;99.90
20045;DHT22;10183;47.808;9.476;2022-12-07T05:35:19;1.70;99.90
20045;DHT22;10183;47.808;9.476;2022-12-07T05:37:46;1.70;99.90
20045;DHT22;10183;47.808;9.476;2022-12-07T05:40:12;1.70;99.90
20045;DHT22;10183;47.808;9.476;2022-12-07T05:42:39;1.60;99.90
20045;DHT22;10183;47.808;9.476;2022-12-07T05:45:06;1.70;99.90
20045;DHT22;10183;47.808;9.476;2022-12-07T05:47:33;1.60;99.90
20045;DHT22;10183;47.808;9.476;2022-12-07T05:49:59;1.60;99.90
20045;DHT22;10183;47.808;9.476;2022-12-07T05:52:25;1.50;99.90
20045;DHT22;10183;47.808;9.476;2022-12-07T05:54:52;1.50;99.90
20045;DHT22;10183;47.808;9.476;2022-12-07T05:57:18;1.40;99.90
20045;DHT22;10183;47.808;9.476;2022-12-07T05:59:45;1.50;99.90
20045;DHT22;10183;47.808;9.476;2022-12-07T06:02:13;1.60;99.90
20045;DHT22;10183;47.808;9.476;2022-12-07T06:04:42;1.60;99.90
20045;DHT22;10183;47.808;9.476;2022-12-07T06:07:10;1.70;99.90
20045;DHT22;10183;47.808;9.476;2022-12-07T06:09:37;1.70;99.90
20045;DHT22;10183;47.808;9.476;2022-12-07T06:12:04;1.70;99.90
20045;DHT22;10183;47.808;9.476;2022-12-07T06:14:49;1.70;99.90
20045;DHT22;10183;47.808;9.476;2022-12-07T06:17:15;1.60;99.90
20045;DHT22;10183;47.808;9.476;2022-12-07T06:19:42;1.60;99.90
20045;DHT22;10183;47.808;9.476;2022-12-07T06:22:09;1.50;99.90
20045;DHT22;10183;47.808;9.476;2022-12-07T06:24:36;1.50;99.90
20045;DHT22;10183;47.808;9.476;2022-12-07T06:27:03;1.40;99.90
20045;DHT22;10183;47.808;9.476;2022-12-07T06:29:30;1.40;99.90
20045;DHT22;10183;47.808;9.476;2022-12-07T06:31:57;1.40;99.90
20045;DHT22;10183;47.808;9.476;2022-12-07T06:34:24;1.40;99.90
20045;DHT22;10183;47.808;9.476;2022-12-07T06:36:51;1.40;99.90
20045;DHT22;10183;47.808;9.476;2022-12-07T06:39:21;1.40;99.90
20045;DHT22;10183;47.808;9.476;2022-12-07T06:41:48;1.20;99.90
20045;DHT22;10183;47.808;9.476;2022-12-07T06:44:14;1.00;99.90
20045;DHT22;10183;47.808;9.476;2022-12-07T06:46:40;1.00;99.90
20045;DHT22;10183;47.808;9.476;2022-12-07T06:49:06;1.00;99.90
20045;DHT22;10183;47.808;9.476;2022-12-07T06:51:34;1.00;99.90
20045;DHT22;10183;47.808;9.476;2022-12-07T06:54:03;0.90;99.90
20045;DHT22;10183;47.808;9.476;2022-12-07T06:56:30;0.90;99.90
20045;DHT22;10183;47.808;9.476;2022-12-07T06:58:56;1.00;99.90
20045;DHT22;10183;47.808;9.476;2022-12-07T07:01:22;1.00;99.90
20045;DHT22;10183;47.808;9.476;2022-12-07T07:03:48;1.10;99.90
20045;DHT22;10183;47.808;9.476;2022-12-07T07:06:15;1.20;99.90
20045;DHT22;10183;47.808;9.476;2022-12-07T07:08:41;1.20;99.90
20045;DHT22;10183;47.808;9.476;2022-12-07T07:11:08;1.40;99.90
20045;DHT22;10183;47.808;9.476;2022-12-07T07:13:35;1.40;99.90
20045;DHT22;10183;47.808;9.476;2022-12-07T07:16:02;1.30;99.90
20045;DHT22;10183;47.808;9.476;2022-12-07T07:18:28;1.40;99.90
20045;DHT22;10183;47.808;9.476;2022-12-07T07:20:55;1.50;99.90
20045;DHT22;10183;47.808;9.476;2022-12-07T07:23:21;1.50;99.90
20045;DHT22;10183;47.808;9.476;2022-12-07T07:25:48;1.50;99.90
20045;DHT22;10183;47.808;9.476;2022-12-07T07:28:14;1.50;99.90
20045;DHT22;10183;47.808;9.476;2022-12-07T07:30:41;1.40;99.90
20045;DHT22;10183;47.808;9.476;2022-12-07T07:33:07;1.40;99.90
20045;DHT22;10183;47.808;9.476;2022-12-07T07:35:34;1.30;99.90
20045;DHT22;10183;47.808;9.476;2022-12-07T07:38:00;1.20;99.90
20045;DHT22;10183;47.808;9.476;2022-12-07T07:40:27;1.20;99.90
20045;DHT22;10183;47.808;9.476;2022-12-07T07:42:57;1.20;99.90
20045;DHT22;10183;47.808;9.476;2022-12-07T07:45:25;1.30;99.90
20045;DHT22;10183;47.808;9.476;2022-12-07T07:47:51;1.40;99.90
20045;DHT22;10183;47.808;9.476;2022-12-07T07:50:18;1.40;99.90
20045;DHT22;10183;47.808;9.476;2022-12-07T07:52:45;1.40;99.90
20045;DHT22;10183;47.808;9.476;2022-12-07T07:55:11;1.50;99.90
20045;DHT22;10183;47.808;9.476;2022-12-07T07:57:39;1.60;99.90
20045;DHT22;10183;47.808;9.476;2022-12-07T08:00:11;1.70;99.90
20045;DHT22;10183;47.808;9.476;2022-12-07T08:02:37;1.70;99.90
20045;DHT22;10183;47.808;9.476;2022-12-07T08:05:04;1.80;99.90
20045;DHT22;10183;47.808;9.476;2022-12-07T08:07:30;1.80;99.90
20045;DHT22;10183;47.808;9.476;2022-12-07T08:09:56;1.80;99.90
20045;DHT22;10183;47.808;9.476;2022-12-07T08:12:22;1.60;99.90
20045;DHT22;10183;47.808;9.476;2022-12-07T08:14:48;1.60;99.90
20045;DHT22;10183;47.808;9.476;2022-12-07T08:17:14;1.60;99.90
20045;DHT22;10183;47.808;9.476;2022-12-07T08:19:41;1.60;99.90
20045;DHT22;10183;47.808;9.476;2022-12-07T08:22:07;1.60;99.90
20045;DHT22;10183;47.808;9.476;2022-12-07T08:24:34;1.50;99.90
20045;DHT22;10183;47.808;9.476;2022-12-07T08:27:00;1.60;99.90
20045;DHT22;10183;47.808;9.476;2022-12-07T08:29:26;1.70;99.90
20045;DHT22;10183;47.808;9.476;2022-12-07T08:31:53;1.70;99.90
20045;DHT22;10183;47.808;9.476;2022-12-07T08:34:19;1.70;99.90
20045;DHT22;10183;47.808;9.476;2022-12-07T08:36:45;1.80;99.90
20045;DHT22;10183;47.808;9.476;2022-12-07T08:39:11;1.90;99.90
20045;DHT22;10183;47.808;9.476;2022-12-07T08:41:38;1.90;99.90
20045;DHT22;10183;47.808;9.476;2022-12-07T08:44:04;2.10;99.90
20045;DHT22;10183;47.808;9.476;2022-12-07T08:46:53;2.20;99.90
20045;DHT22;10183;47.808;9.476;2022-12-07T08:49:27;2.40;99.90
20045;DHT22;10183;47.808;9.476;2022-12-07T08:51:56;2.50;99.90
20045;DHT22;10183;47.808;9.476;2022-12-07T08:54:22;2.50;99.90
20045;DHT22;10183;47.808;9.476;2022-12-07T08:56:49;2.60;99.90
20045;DHT22;10183;47.808;9.476;2022-12-07T08:59:19;2.70;99.90
20045;DHT22;10183;47.808;9.476;2022-12-07T09:01:46;2.70;99.90
20045;DHT22;10183;47.808;9.476;2022-12-07T09:04:12;2.70;99.90
20045;DHT22;10183;47.808;9.476;2022-12-07T09:06:38;2.80;99.90
20045;DHT22;10183;47.808;9.476;2022-12-07T09:09:04;2.90;99.90
20045;DHT22;10183;47.808;9.476;2022-12-07T09:11:32;2.90;99.90
20045;DHT22;10183;47.808;9.476;2022-12-07T09:13:58;2.90;99.90
20045;DHT22;10183;47.808;9.476;2022-12-07T09:16:24;2.80;99.90
20045;DHT22;10183;47.808;9.476;2022-12-07T09:18:50;2.90;99.90
20045;DHT22;10183;47.808;9.476;2022-12-07T09:21:16;2.80;99.90
20045;DHT22;10183;47.808;9.476;2022-12-07T09:23:43;2.80;99.90
20045;DHT22;10183;47.808;9.476;2022-12-07T09:26:09;2.80;99.90
20045;DHT22;10183;47.808;9.476;2022-12-07T09:28:35;2.90;99.90
20045;DHT22;10183;47.808;9.476;2022-12-07T09:31:02;2.90;99.90
20045;DHT22;10183;47.808;9.476;2022-12-07T09:33:29;3.00;99.90
20045;DHT22;10183;47.808;9.476;2022-12-07T09:35:55;3.00;99.90
20045;DHT22;10183;47.808;9.476;2022-12-07T09:38:21;2.70;99.90
20045;DHT22;10183;47.808;9.476;2022-12-07T09:40:49;2.30;99.90
20045;DHT22;10183;47.808;9.476;2022-12-07T09:43:23;2.10;99.90
20045;DHT22;10183;47.808;9.476;2022-12-07T09:45:53;2.10;99.90
20045;DHT22;10183;47.808;9.476;2022-12-07T09:48:32;2.00;99.90
20045;DHT22;10183;47.808;9.476;2022-12-07T09:51:00;2.10;99.90
20045;DHT22;10183;47.808;9.476;2022-12-07T09:53:39;2.20;99.90
20045;DHT22;10183;47.808;9.476;2022-12-07T09:56:05;2.10;99.90
20045;DHT22;10183;47.808;9.476;2022-12-07T09:58:33;2.10;99.90
20045;DHT22;10183;47.808;9.476;2022-12-07T10:01:11;2.10;99.90
20045;DHT22;10183;47.808;9.476;2022-12-07T10:03:40;2.30;99.90
20045;DHT22;10183;47.808;9.476;2022-12-07T10:06:10;2.30;99.90
20045;DHT22;10183;47.808;9.476;2022-12-07T10:08:38;2.60;99.90
20045;DHT22;10183;47.808;9.476;2022-12-07T10:11:04;2.60;99.90
20045;DHT22;10183;47.808;9.476;2022-12-07T10:13:42;2.60;99.90
20045;DHT22;10183;47.808;9.476;2022-12-07T10:16:30;2.80;99.90
20045;DHT22;10183;47.808;9.476;2022-12-07T10:19:27;2.70;99.90
20045;DHT22;10183;47.808;9.476;2022-12-07T10:22:13;2.90;99.90
20045;DHT22;10183;47.808;9.476;2022-12-07T10:24:41;2.70;99.90
20045;DHT22;10183;47.808;9.476;2022-12-07T10:27:30;2.70;99.90
20045;DHT22;10183;47.808;9.476;2022-12-07T10:29:57;2.60;99.90
20045;DHT22;10183;47.808;9.476;2022-12-07T10:32:35;2.60;99.90
20045;DHT22;10183;47.808;9.476;2022-12-07T10:37:55;2.60;99.90
20045;DHT22;10183;47.808;9.476;2022-12-07T10:46:17;2.70;99.90
20045;DHT22;10183;47.808;9.476;2022-12-07T10:59:52;3.20;99.90
20045;DHT22;10183;47.808;9.476;2022-12-07T11:03:36;2.90;99.90
20045;DHT22;10183;47.808;9.476;2022-12-07T11:08:18;3.10;99.90
20045;DHT22;10183;47.808;9.476;2022-12-07T11:26:58;2.90;99.90
20045;DHT22;10183;47.808;9.476;2022-12-07T11:32:04;2.80;99.90
20045;DHT22;10183;47.808;9.476;2022-12-07T11:37:35;2.70;99.90
20045;DHT22;10183;47.808;9.476;2022-12-07T11:40:04;2.80;99.90
20045;DHT22;10183;47.808;9.476;2022-12-07T11:42:39;2.90;99.90
20045;DHT22;10183;47.808;9.476;2022-12-07T11:45:12;2.80;99.90
20045;DHT22;10183;47.808;9.476;2022-12-07T11:47:59;2.70;99.90
20045;DHT22;10183;47.808;9.476;2022-12-07T11:50:51;2.60;99.90
20045;DHT22;10183;47.808;9.476;2022-12-07T11:53:44;2.50;99.90
20045;DHT22;10183;47.808;9.476;2022-12-07T11:56:19;2.40;99.90
20045;DHT22;10183;47.808;9.476;2022-12-07T12:01:36;2.40;99.90
20045;DHT22;10183;47.808;9.476;2022-12-07T12:06:39;2.60;99.90
20045;DHT22;10183;47.808;9.476;2022-12-07T12:09:24;2.60;99.90
20045;DHT22;10183;47.808;9.476;2022-12-07T12:17:47;2.60;99.90
20045;DHT22;10183;47.808;9.476;2022-12-07T12:26:02;2.70;99.90
20045;DHT22;10183;47.808;9.476;2022-12-07T12:33:57;2.70;99.90
20045;DHT22;10183;47.808;9.476;2022-12-07T12:39:16;2.50;99.90
20045;DHT22;10183;47.808;9.476;2022-12-07T12:46:56;2.80;99.90
20045;DHT22;10183;47.808;9.476;2022-12-07T13:26:35;2.70;99.90
20045;DHT22;10183;47.808;9.476;2022-12-07T13:29:13;2.70;99.90
20045;DHT22;10183;47.808;9.476;2022-12-07T13:31:55;2.60;99.90
20045;DHT22;10183;47.808;9.476;2022-12-07T13:34:36;2.80;99.90
20045;DHT22;10183;47.808;9.476;2022-12-07T13:39:56;2.70;99.90
20045;DHT22;10183;47.808;9.476;2022-12-07T13:42:29;2.60;99.90
20045;DHT22;10183;47.808;9.476;2022-12-07T13:44:57;2.60;99.90
20045;DHT22;10183;47.808;9.476;2022-12-07T13:47:44;2.50;99.90
20045;DHT22;10183;47.808;9.476;2022-12-07T13:52:50;2.60;99.90
20045;DHT22;10183;47.808;9.476;2022-12-07T13:55:20;2.60;99.90
20045;DHT22;10183;47.808;9.476;2022-12-07T13:57:54;2.60;99.90
20045;DHT22;10183;47.808;9.476;2022-12-07T14:00:27;2.60;99.90
20045;DHT22;10183;47.808;9.476;2022-12-07T14:03:04;2.50;99.90
20045;DHT22;10183;47.808;9.476;2022-12-07T14:05:33;2.50;99.90
20045;DHT22;10183;47.808;9.476;2022-12-07T14:12:57;2.60;99.90
20045;DHT22;10183;47.808;9.476;2022-12-07T14:15:29;2.50;99.90
20045;DHT22;10183;47.808;9.476;2022-12-07T14:17:57;2.50;99.90
20045;DHT22;10183;47.808;9.476;2022-12-07T14:20:39;2.50;99.90
20045;DHT22;10183;47.808;9.476;2022-12-07T14:23:21;2.40;99.90
20045;DHT22;10183;47.808;9.476;2022-12-07T14:25:52;2.50;99.90
20045;DHT22;10183;47.808;9.476;2022-12-07T14:28:33;2.40;99.90
20045;DHT22;10183;47.808;9.476;2022-12-07T14:31:01;2.40;99.90
20045;DHT22;10183;47.808;9.476;2022-12-07T14:33:28;2.40;99.90
20045;DHT22;10183;47.808;9.476;2022-12-07T14:35:55;2.40;99.90
20045;DHT22;10183;47.808;9.476;2022-12-07T14:38:24;2.30;99.90
20045;DHT22;10183;47.808;9.476;2022-12-07T14:40:52;2.40;99.90
20045;DHT22;10183;47.808;9.476;2022-12-07T14:43:20;2.40;99.90
20045;DHT22;10183;47.808;9.476;2022-12-07T14:45:46;2.40;99.90
20045;DHT22;10183;47.808;9.476;2022-12-07T14:48:15;2.40;99.90
20045;DHT22;10183;47.808;9.476;2022-12-07T14:50:44;2.40;99.90
20045;DHT22;10183;47.808;9.476;2022-12-07T14:53:14;2.30;99.90
20045;DHT22;10183;47.808;9.476;2022-12-07T14:55:41;2.30;99.90
20045;DHT22;10183;47.808;9.476;2022-12-07T14:58:17;2.30;99.90
20045;DHT22;10183;47.808;9.476;2022-12-07T15:00:44;2.30;99.90
20045;DHT22;10183;47.808;9.476;2022-12-07T15:03:10;2.20;99.90
20045;DHT22;10183;47.808;9.476;2022-12-07T15:05:39;2.20;99.90
20045;DHT22;10183;47.808;9.476;2022-12-07T15:08:08;2.20;99.90
20045;DHT22;10183;47.808;9.476;2022-12-07T15:10:35;2.30;99.90
20045;DHT22;10183;47.808;9.476;2022-12-07T15:13:04;2.30;99.90
20045;DHT22;10183;47.808;9.476;2022-12-07T15:15:51;2.30;99.90
20045;DHT22;10183;47.808;9.476;2022-12-07T15:18:18;2.20;99.90
20045;DHT22;10183;47.808;9.476;2022-12-07T15:20:45;2.30;99.90
20045;DHT22;10183;47.808;9.476;2022-12-07T15:23:11;2.20;99.90
20045;DHT22;10183;47.808;9.476;2022-12-07T15:25:42;2.10;99.90
20045;DHT22;10183;47.808;9.476;2022-12-07T15:28:08;2.10;99.90
20045;DHT22;10183;47.808;9.476;2022-12-07T15:30:37;2.10;99.90
20045;DHT22;10183;47.808;9.476;2022-12-07T15:33:03;2.00;99.90
20045;DHT22;10183;47.808;9.476;2022-12-07T15:35:29;1.90;99.90
20045;DHT22;10183;47.808;9.476;2022-12-07T15:37:55;1.90;99.90
20045;DHT22;10183;47.808;9.476;2022-12-07T15:40:22;1.80;99.90
20045;DHT22;10183;47.808;9.476;2022-12-07T15:42:48;1.80;99.90
20045;DHT22;10183;47.808;9.476;2022-12-07T15:45:14;1.70;99.90
20045;DHT22;10183;47.808;9.476;2022-12-07T15:47:42;1.70;99.90
20045;DHT22;10183;47.808;9.476;2022-12-07T15:50:12;1.60;99.90
20045;DHT22;10183;47.808;9.476;2022-12-07T15:52:39;1.50;99.90
20045;DHT22;10183;47.808;9.476;2022-12-07T15:55:06;1.40;99.90
20045;DHT22;10183;47.808;9.476;2022-12-07T15:57:34;1.30;99.90
20045;DHT22;10183;47.808;9.476;2022-12-07T16:00:01;1.20;99.90
20045;DHT22;10183;47.808;9.476;2022-12-07T16:02:27;1.10;99.90
20045;DHT22;10183;47.808;9.476;2022-12-07T16:04:53;1.10;99.90
20045;DHT22;10183;47.808;9.476;2022-12-07T16:07:20;1.00;99.90
20045;DHT22;10183;47.808;9.476;2022-12-07T16:09:47;1.10;99.90
20045;DHT22;10183;47.808;9.476;2022-12-07T16:12:13;1.00;99.90
20045;DHT22;10183;47.808;9.476;2022-12-07T16:14:40;1.00;99.90
20045;DHT22;10183;47.808;9.476;2022-12-07T16:17:07;0.90;99.90
20045;DHT22;10183;47.808;9.476;2022-12-07T16:19:35;0.90;99.90
20045;DHT22;10183;47.808;9.476;2022-12-07T16:22:02;0.90;99.90
20045;DHT22;10183;47.808;9.476;2022-12-07T16:24:28;0.90;99.90
20045;DHT22;10183;47.808;9.476;2022-12-07T16:26:55;0.90;99.90
20045;DHT22;10183;47.808;9.476;2022-12-07T16:29:22;0.80;99.90
20045;DHT22;10183;47.808;9.476;2022-12-07T16:31:49;0.80;99.90
20045;DHT22;10183;47.808;9.476;2022-12-07T16:34:16;0.70;99.90
20045;DHT22;10183;47.808;9.476;2022-12-07T16:36:43;0.60;99.90
20045;DHT22;10183;47.808;9.476;2022-12-07T16:39:09;0.50;99.90
20045;DHT22;10183;47.808;9.476;2022-12-07T16:41:36;0.50;99.90
20045;DHT22;10183;47.808;9.476;2022-12-07T16:44:04;0.50;99.90
20045;DHT22;10183;47.808;9.476;2022-12-07T16:46:35;0.50;99.90
20045;DHT22;10183;47.808;9.476;2022-12-07T16:49:02;0.50;99.90
20045;DHT22;10183;47.808;9.476;2022-12-07T16:51:28;0.50;99.90
20045;DHT22;10183;47.808;9.476;2022-12-07T16:53:55;0.50;99.90
20045;DHT22;10183;47.808;9.476;2022-12-07T16:56:21;0.50;99.90
20045;DHT22;10183;47.808;9.476;2022-12-07T16:58:48;0.50;99.90
20045;DHT22;10183;47.808;9.476;2022-12-07T17:01:17;0.50;99.90
20045;DHT22;10183;47.808;9.476;2022-12-07T17:03:44;0.50;99.90
20045;DHT22;10183;47.808;9.476;2022-12-07T17:06:16;0.50;99.90
20045;DHT22;10183;47.808;9.476;2022-12-07T17:08:42;0.40;99.90
20045;DHT22;10183;47.808;9.476;2022-12-07T17:11:29;0.40;99.90
20045;DHT22;10183;47.808;9.476;2022-12-07T17:13:58;0.40;99.90
20045;DHT22;10183;47.808;9.476;2022-12-07T17:16:43;0.40;99.90
20045;DHT22;10183;47.808;9.476;2022-12-07T17:19:11;0.40;99.90
20045;DHT22;10183;47.808;9.476;2022-12-07T17:21:38;0.40;99.90
20045;DHT22;10183;47.808;9.476;2022-12-07T17:24:06;0.10;99.90
20045;DHT22;10183;47.808;9.476;2022-12-07T17:26:34;0.10;99.90
20045;DHT22;10183;47.808;9.476;2022-12-07T17:29:00;0.10;99.90
20045;DHT22;10183;47.808;9.476;2022-12-07T17:31:27;0.00;99.90
20045;DHT22;10183;47.808;9.476;2022-12-07T17:33:53;0.10;99.90
20045;DHT22;10183;47.808;9.476;2022-12-07T17:36:26;0.10;99.90
20045;DHT22;10183;47.808;9.476;2022-12-07T17:38:52;0.10;99.90
20045;DHT22;10183;47.808;9.476;2022-12-07T17:41:23;0.10;99.90
20045;DHT22;10183;47.808;9.476;2022-12-07T17:44:10;0.10;99.90
20045;DHT22;10183;47.808;9.476;2022-12-07T17:46:38;0.10;99.90
20045;DHT22;10183;47.808;9.476;2022-12-07T17:49:05;0.10;99.90
20045;DHT22;10183;47.808;9.476;2022-12-07T17:51:32;0.10;99.90
20045;DHT22;10183;47.808;9.476;2022-12-07T17:54:17;0.10;99.90
20045;DHT22;10183;47.808;9.476;2022-12-07T17:56:44;0.00;99.90
20045;DHT22;10183;47.808;9.476;2022-12-07T17:59:11;-0.10;99.90
20045;DHT22;10183;47.808;9.476;2022-12-07T18:01:37;-0.10;99.90
20045;DHT22;10183;47.808;9.476;2022-12-07T18:04:04;-0.30;99.90
20045;DHT22;10183;47.808;9.476;2022-12-07T18:06:31;-0.30;99.90
20045;DHT22;10183;47.808;9.476;2022-12-07T18:08:58;-0.20;99.90
20045;DHT22;10183;47.808;9.476;2022-12-07T18:11:25;-0.20;99.90
20045;DHT22;10183;47.808;9.476;2022-12-07T18:13:52;-0.20;99.90
20045;DHT22;10183;47.808;9.476;2022-12-07T18:16:20;-0.20;99.90
20045;DHT22;10183;47.808;9.476;2022-12-07T18:18:48;-0.20;99.90
20045;DHT22;10183;47.808;9.476;2022-12-07T18:21:22;-0.20;99.90
20045;DHT22;10183;47.808;9.476;2022-12-07T18:23:52;-0.30;99.90
20045;DHT22;10183;47.808;9.476;2022-12-07T18:26:20;-0.30;99.90